Time;durP1;ratioP1;P1;durP2;ratioP2;P2;SDS_P1;SDS_P2;PMS_P1;PMS_P2;Temp;Humidity;BMP_temperature;BMP_pressure;BME280_temperature;BME280_humidity;BME280_pressure;Samples;Min_cycle;Max_cycle;Signal;HPM_P1;HPM_P2
2023/05/10 00:00:25;;;;;;;2.88;1.00;;;13.60;58.10;;;;;;7363498;19;20357;-72
2023/05/10 00:02:55;;;;;;;1.35;0.80;;;13.50;57.50;;;;;;7388546;19;20122;-73
2023/05/10 00:05:25;;;;;;;1.67;0.80;;;13.50;57.80;;;;;;7364663;19;20781;-72
2023/05/10 00:07:55;;;;;;;1.77;0.93;;;13.40;57.00;;;;;;7371747;19;20030;-72
2023/05/10 00:10:25;;;;;;;1.23;0.70;;;13.30;56.40;;;;;;7373015;19;20034;-72
2023/05/10 00:12:58;;;;;;;2.20;0.60;;;13.30;56.40;;;;;;7373100;19;20011;-72
2023/05/10 00:15:27;;;;;;;1.67;0.57;;;13.20;56.20;;;;;;7371477;19;20040;-72
2023/05/10 00:17:57;;;;;;;0.43;0.32;;;13.10;55.30;;;;;;7394016;19;20450;-72
2023/05/10 00:20:27;;;;;;;0.50;0.35;;;13.00;54.30;;;;;;7370901;19;20014;-71
2023/05/10 00:22:57;;;;;;;1.10;0.50;;;13.00;54.70;;;;;;7373256;19;20416;-71
2023/05/10 00:25:27;;;;;;;0.40;0.30;;;13.00;53.70;;;;;;7371390;19;20034;-71
2023/05/10 00:28:01;;;;;;;0.85;0.30;;;12.90;53.70;;;;;;7372046;19;20047;-71
2023/05/10 00:30:31;;;;;;;1.52;0.47;;;12.80;54.50;;;;;;7370435;19;20055;-71
2023/05/10 00:33:00;;;;;;;5.70;0.50;;;12.90;55.40;;;;;;7394147;19;20022;-71
2023/05/10 00:35:31;;;;;;;2.78;0.50;;;12.90;55.80;;;;;;7370446;19;20010;-71
2023/05/10 00:38:00;;;;;;;2.38;0.52;;;12.90;54.80;;;;;;7372039;19;20542;-71
2023/05/10 00:40:31;;;;;;;0.57;0.45;;;12.90;54.60;;;;;;7372151;19;20415;-71
2023/05/10 00:43:03;;;;;;;0.80;0.43;;;12.90;54.20;;;;;;7372920;19;20034;-70
2023/05/10 00:45:34;;;;;;;1.10;0.60;;;12.90;55.40;;;;;;7369978;19;20513;-71
2023/05/10 00:48:05;;;;;;;2.83;0.60;;;12.90;54.40;;;;;;7379967;19;20018;-72
2023/05/10 00:50:36;;;;;;;0.63;0.50;;;12.80;53.90;;;;;;7392036;19;20014;-72
2023/05/10 00:53:06;;;;;;;1.52;0.60;;;12.80;53.40;;;;;;7371720;19;20089;-70
2023/05/10 00:55:36;;;;;;;0.90;0.73;;;12.80;52.90;;;;;;7368673;19;20014;-72
2023/05/10 00:58:08;;;;;;;1.55;0.55;;;12.80;53.90;;;;;;7371712;19;20654;-71
2023/05/10 01:00:40;;;;;;;0.95;0.70;;;12.90;55.00;;;;;;7370687;19;20038;-71
2023/05/10 01:03:10;;;;;;;0.77;0.60;;;12.90;55.00;;;;;;7372746;19;20561;-72
2023/05/10 01:05:40;;;;;;;1.27;0.70;;;12.80;54.50;;;;;;7392346;19;20018;-70
2023/05/10 01:08:11;;;;;;;1.85;0.60;;;12.90;55.90;;;;;;7372284;19;20018;-71
2023/05/10 01:10:41;;;;;;;0.55;0.50;;;12.90;55.00;;;;;;7372165;19;20505;-72
2023/05/10 01:13:14;;;;;;;0.80;0.60;;;12.80;55.00;;;;;;7371704;19;20014;-71
2023/05/10 01:15:44;;;;;;;0.70;0.70;;;12.80;55.10;;;;;;7370037;19;20006;-71
2023/05/10 01:18:14;;;;;;;0.57;0.55;;;12.70;53.30;;;;;;7369123;19;20006;-70
2023/05/10 01:20:51;;;;;;;0.80;0.77;;;12.70;52.60;;;;;;7391740;19;20023;-71
2023/05/10 01:23:48;;;;;;;1.00;0.90;;;12.70;51.00;;;;;;7372126;19;20070;-70
2023/05/10 01:26:39;;;;;;;1.30;1.17;;;12.80;50.60;;;;;;7369584;19;20011;-71
2023/05/10 01:29:30;;;;;;;2.13;1.20;;;12.90;49.90;;;;;;7369889;19;20011;-72
2023/05/10 01:32:31;;;;;;;1.70;1.60;;;12.90;48.10;;;;;;7369670;19;20017;-71
2023/05/10 01:35:05;;;;;;;1.70;1.48;;;12.80;47.40;;;;;;7368726;19;20061;-72
2023/05/10 01:37:44;;;;;;;3.80;1.52;;;12.80;47.40;;;;;;7368545;19;20014;-72
2023/05/10 01:40:22;;;;;;;3.28;1.50;;;12.80;48.00;;;;;;7369758;19;20014;-72
2023/05/10 01:42:55;;;;;;;2.92;1.63;;;12.80;48.10;;;;;;7371327;19;20010;-71
2023/05/10 01:45:32;;;;;;;1.50;1.40;;;12.80;47.90;;;;;;7369423;19;20019;-71
2023/05/10 01:48:10;;;;;;;2.63;1.40;;;12.80;49.80;;;;;;7392310;19;20015;-71
2023/05/10 01:50:45;;;;;;;1.50;1.33;;;12.70;49.20;;;;;;7368928;19;20034;-71
2023/05/10 01:53:19;;;;;;;2.35;1.98;;;12.80;48.80;;;;;;7367964;19;20031;-72
2023/05/10 01:55:53;;;;;;;1.60;1.40;;;12.80;47.90;;;;;;7368446;19;20146;-72
2023/05/10 01:58:27;;;;;;;2.30;1.50;;;12.70;47.30;;;;;;7370236;19;20019;-71
2023/05/10 02:00:58;;;;;;;2.50;1.67;;;12.80;48.60;;;;;;7369006;19;20348;-71
2023/05/10 02:03:33;;;;;;;2.67;1.40;;;12.90;48.50;;;;;;7369912;19;20046;-72
2023/05/10 02:06:04;;;;;;;1.75;1.50;;;12.80;48.10;;;;;;7390651;19;20027;-72
2023/05/10 02:08:36;;;;;;;5.05;1.42;;;12.80;48.90;;;;;;7369175;19;20025;-71
2023/05/10 02:11:07;;;;;;;1.42;1.33;;;12.80;48.00;;;;;;7369284;19;20021;-71
2023/05/10 02:13:40;;;;;;;1.30;1.00;;;12.80;50.10;;;;;;7368300;19;20007;-71
2023/05/10 02:16:10;;;;;;;1.73;1.27;;;12.80;50.10;;;;;;7368349;19;20011;-70
2023/05/10 02:18:44;;;;;;;2.28;1.20;;;12.80;49.90;;;;;;7369159;19;20017;-71
2023/05/10 02:21:15;;;;;;;2.38;1.30;;;12.70;50.00;;;;;;7368291;19;20014;-71
2023/05/10 02:23:46;;;;;;;2.13;1.30;;;12.70;50.00;;;;;;7391290;19;20014;-72
2023/05/10 02:26:17;;;;;;;1.38;1.27;;;12.70;49.90;;;;;;7367454;19;20010;-71
2023/05/10 02:28:47;;;;;;;1.73;1.30;;;12.60;49.80;;;;;;7367862;19;20497;-70
2023/05/10 02:31:18;;;;;;;1.50;1.25;;;12.70;50.50;;;;;;7367526;19;20048;-71
2023/05/10 02:33:51;;;;;;;3.25;1.50;;;12.70;51.60;;;;;;7368210;19;20011;-71
2023/05/10 02:36:22;;;;;;;3.45;1.60;;;12.70;50.80;;;;;;7367991;19;20018;-71
2023/05/10 02:38:54;;;;;;;1.92;1.60;;;12.70;49.90;;;;;;7389676;19;20017;-71
2023/05/10 02:41:26;;;;;;;3.05;1.42;;;12.70;49.30;;;;;;7368859;19;20086;-71
2023/05/10 02:43:59;;;;;;;1.58;1.48;;;12.70;49.60;;;;;;7367791;19;20077;-71
2023/05/10 02:46:29;;;;;;;2.77;1.57;;;12.80;49.30;;;;;;7367632;19;20006;-71
2023/05/10 02:49:03;;;;;;;1.90;1.70;;;12.80;48.70;;;;;;7368204;19;20498;-72
2023/05/10 02:51:34;;;;;;;5.05;1.77;;;12.70;47.30;;;;;;7367633;19;20385;-71
2023/05/10 02:54:09;;;;;;;4.75;1.90;;;12.80;47.70;;;;;;7376340;19;20474;-72
2023/05/10 02:56:45;;;;;;;2.75;1.80;;;12.80;47.40;;;;;;7389002;19;20336;-71
2023/05/10 02:59:15;;;;;;;3.83;2.20;;;12.90;48.00;;;;;;7368272;19;20049;-72
2023/05/10 03:01:45;;;;;;;2.65;2.00;;;12.80;47.00;;;;;;7367310;19;20030;-71
2023/05/10 03:04:17;;;;;;;2.50;2.30;;;12.80;46.90;;;;;;7368170;19;20006;-71
2023/05/10 03:06:47;;;;;;;3.33;2.50;;;12.80;47.90;;;;;;7365419;19;20013;-71
2023/05/10 03:09:17;;;;;;;4.03;2.50;;;12.90;48.00;;;;;;7368506;19;20677;-71
2023/05/10 03:12:03;;;;;;;3.80;2.50;;;12.90;47.50;;;;;;7388624;19;20010;-71
2023/05/10 03:14:45;;;;;;;2.30;2.10;;;12.90;47.00;;;;;;7366843;19;20475;-71
2023/05/10 03:17:21;;;;;;;3.85;2.20;;;12.90;46.70;;;;;;7364989;19;20018;-71
2023/05/10 03:19:57;;;;;;;2.30;2.10;;;12.90;44.10;;;;;;7367059;19;20022;-71
2023/05/10 03:22:33;;;;;;;2.55;2.35;;;13.00;46.40;;;;;;7367867;19;20419;-71
2023/05/10 03:25:07;;;;;;;3.55;2.38;;;13.00;46.30;;;;;;7367651;19;20054;-72
2023/05/10 03:27:38;;;;;;;;;;;13.00;45.30;;;;;;7366761;19;20018;-70
2023/05/10 03:30:12;;;;;;;3.47;2.50;;;13.00;45.90;;;;;;7365717;19;19978;-70
2023/05/10 03:32:42;;;;;;;2.92;2.65;;;13.10;47.40;;;;;;7389257;19;20026;-71
2023/05/10 03:35:15;;;;;;;3.33;2.90;;;13.10;46.80;;;;;;7364804;19;20038;-71
2023/05/10 03:37:45;;;;;;;3.88;2.92;;;13.10;46.40;;;;;;7367090;19;20023;-71
2023/05/10 03:40:16;;;;;;;3.58;2.90;;;13.10;47.00;;;;;;7366161;19;20010;-72
2023/05/10 03:42:47;;;;;;;3.20;2.72;;;13.10;46.00;;;;;;7365026;19;20014;-71
2023/05/10 03:45:17;;;;;;;4.35;2.63;;;13.10;46.20;;;;;;7365873;19;20475;-71
2023/05/10 03:47:47;;;;;;;4.78;3.20;;;13.10;46.20;;;;;;7388088;19;20010;-70
2023/05/10 03:50:19;;;;;;;3.92;2.90;;;13.10;45.90;;;;;;7365297;19;20046;-71
2023/05/10 03:52:49;;;;;;;4.38;3.17;;;13.10;44.30;;;;;;7366502;19;20084;-70
2023/05/10 03:55:22;;;;;;;3.88;3.22;;;13.10;44.50;;;;;;7364214;19;20006;-70
2023/05/10 03:57:53;;;;;;;7.03;3.25;;;13.00;42.80;;;;;;7367354;19;20374;-71
2023/05/10 04:00:23;;;;;;;4.18;3.28;;;13.10;44.00;;;;;;7364692;19;20011;-70
2023/05/10 04:02:53;;;;;;;5.35;3.40;;;13.10;44.80;;;;;;7387586;19;20014;-71
2023/05/10 04:05:25;;;;;;;4.00;3.10;;;13.20;45.20;;;;;;7364879;19;20809;-71
2023/05/10 04:07:55;;;;;;;4.18;3.22;;;13.10;45.30;;;;;;7366079;19;20011;-71
2023/05/10 04:10:25;;;;;;;4.97;3.30;;;13.10;43.70;;;;;;7366132;19;20007;-70
2023/05/10 04:12:55;;;;;;;3.55;3.13;;;13.10;44.00;;;;;;7366224;19;20018;-71
2023/05/10 04:15:25;;;;;;;4.60;3.75;;;13.20;45.30;;;;;;7363073;19;20004;-71
2023/05/10 04:17:55;;;;;;;4.80;3.28;;;13.20;45.40;;;;;;7387951;19;20125;-71
2023/05/10 04:20:27;;;;;;;4.28;3.47;;;13.20;45.00;;;;;;7364208;19;20006;-71
2023/05/10 04:22:58;;;;;;;4.55;3.13;;;13.20;45.50;;;;;;7365722;19;20074;-71
2023/05/10 04:25:28;;;;;;;3.95;2.90;;;13.20;44.70;;;;;;7364367;19;20010;-71
2023/05/10 04:27:57;;;;;;;8.45;2.90;;;13.10;44.00;;;;;;7365005;19;20086;-71
2023/05/10 04:30:29;;;;;;;2.90;2.60;;;13.20;44.70;;;;;;7364679;19;20014;-71
2023/05/10 04:32:58;;;;;;;2.90;2.60;;;13.20;43.50;;;;;;7387440;19;20400;-71
2023/05/10 04:35:31;;;;;;;4.22;3.30;;;13.20;41.90;;;;;;7363316;19;20043;-71
2023/05/10 04:38:01;;;;;;;3.97;2.80;;;13.20;41.20;;;;;;7365373;19;20481;-70
2023/05/10 04:40:31;;;;;;;4.38;2.67;;;13.20;41.90;;;;;;7363563;19;20091;-71
2023/05/10 04:43:01;;;;;;;3.55;2.47;;;13.10;40.90;;;;;;7364922;19;20018;-70
2023/05/10 04:45:31;;;;;;;2.88;2.25;;;13.20;40.00;;;;;;7364319;19;20025;-71
2023/05/10 04:48:01;;;;;;;4.75;2.92;;;13.10;38.70;;;;;;7387625;19;20346;-70
2023/05/10 04:50:33;;;;;;;3.92;2.70;;;13.10;38.70;;;;;;7363834;19;20743;-71
2023/05/10 04:53:03;;;;;;;2.97;2.60;;;13.10;39.10;;;;;;7365098;19;20025;-70
2023/05/10 04:55:33;;;;;;;5.32;2.30;;;13.20;40.50;;;;;;7369777;19;20022;-72
2023/05/10 04:58:03;;;;;;;2.50;2.30;;;13.20;39.90;;;;;;7372091;19;20474;-70
2023/05/10 05:00:33;;;;;;;2.95;2.30;;;13.10;36.70;;;;;;7370547;19;20011;-70
2023/05/10 05:03:03;;;;;;;2.75;2.45;;;13.30;39.40;;;;;;7394651;19;20015;-71
2023/05/10 05:05:35;;;;;;;5.00;2.70;;;13.30;37.60;;;;;;7369399;19;20058;-71
2023/05/10 05:08:06;;;;;;;3.30;2.47;;;13.40;38.70;;;;;;7370915;19;20046;-70
2023/05/10 05:10:36;;;;;;;4.22;2.58;;;13.30;36.90;;;;;;7371288;19;20021;-70
2023/05/10 05:13:06;;;;;;;3.10;2.70;;;13.40;38.30;;;;;;7372608;19;20026;-71
2023/05/10 05:15:35;;;;;;;4.75;2.72;;;13.40;35.60;;;;;;7368897;19;20017;-71
2023/05/10 05:18:06;;;;;;;2.97;2.53;;;13.50;35.90;;;;;;7374750;19;20006;-72
2023/05/10 05:20:38;;;;;;;2.90;2.60;;;13.60;35.90;;;;;;7391492;19;20031;-70
2023/05/10 05:23:08;;;;;;;4.03;2.80;;;13.60;32.30;;;;;;7370634;19;20490;-70
2023/05/10 05:25:38;;;;;;;5.32;2.30;;;13.70;35.00;;;;;;7370187;19;20612;-70
2023/05/10 05:28:08;;;;;;;3.05;2.45;;;14.00;31.80;;;;;;7370367;19;20343;-71
2023/05/10 05:30:38;;;;;;;5.47;2.40;;;14.30;23.60;;;;;;7367712;19;20470;-71
2023/05/10 05:33:08;;;;;;;2.92;2.20;;;14.40;24.90;;;;;;7370800;19;20010;-71
2023/05/10 05:35:40;;;;;;;4.15;2.42;;;14.30;25.50;;;;;;7389371;19;20353;-72
2023/05/10 05:38:10;;;;;;;5.00;2.80;;;14.30;28.00;;;;;;7367815;19;20013;-71
2023/05/10 05:40:40;;;;;;;3.75;2.75;;;13.90;27.10;;;;;;7369778;19;20045;-71
2023/05/10 05:43:10;;;;;;;4.40;2.50;;;14.10;30.60;;;;;;7370401;19;20014;-71
2023/05/10 05:45:40;;;;;;;6.82;4.32;;;13.90;27.30;;;;;;7367928;19;20034;-71
2023/05/10 05:48:11;;;;;;;4.13;2.83;;;13.80;29.20;;;;;;7369924;19;20020;-72
2023/05/10 05:50:43;;;;;;;3.85;3.50;;;13.90;30.00;;;;;;7389879;19;20411;-71
2023/05/10 05:53:13;;;;;;;3.75;3.17;;;13.90;30.90;;;;;;7369819;19;20017;-71
2023/05/10 05:55:43;;;;;;;8.93;3.05;;;13.90;29.50;;;;;;7367063;19;20494;-71
2023/05/10 05:58:13;;;;;;;3.75;3.08;;;13.90;29.30;;;;;;7370073;19;20018;-71
2023/05/10 06:00:43;;;;;;;6.63;3.83;;;13.90;26.90;;;;;;7369140;19;20011;-72
2023/05/10 06:03:13;;;;;;;4.22;3.20;;;14.00;32.70;;;;;;7370626;19;20498;-71
2023/05/10 06:05:45;;;;;;;5.25;3.13;;;14.00;31.70;;;;;;7388246;19;20017;-71
2023/05/10 06:08:15;;;;;;;3.38;2.72;;;13.90;29.60;;;;;;7368897;19;20030;-70
2023/05/10 06:10:45;;;;;;;3.65;2.95;;;13.70;30.60;;;;;;7369040;19;20109;-71
2023/05/10 06:13:15;;;;;;;6.40;3.53;;;13.80;30.40;;;;;;7369732;19;20058;-71
2023/05/10 06:15:45;;;;;;;7.80;3.35;;;13.90;30.40;;;;;;7367703;19;20010;-71
2023/05/10 06:18:15;;;;;;;3.30;2.63;;;13.90;30.20;;;;;;7367969;19;20077;-71
2023/05/10 06:20:47;;;;;;;4.10;3.30;;;14.10;29.30;;;;;;7389698;19;20006;-71
2023/05/10 06:23:17;;;;;;;3.50;2.83;;;14.10;28.30;;;;;;7369629;19;20006;-71
2023/05/10 06:25:47;;;;;;;3.47;2.58;;;14.30;27.50;;;;;;7367363;19;20557;-71
2023/05/10 06:28:17;;;;;;;2.88;2.47;;;14.10;27.30;;;;;;7368597;19;20015;-72
2023/05/10 06:30:47;;;;;;;4.00;2.83;;;14.20;27.50;;;;;;7368051;19;20011;-72
2023/05/10 06:33:18;;;;;;;3.03;2.38;;;14.30;26.90;;;;;;7369326;19;20017;-70
2023/05/10 06:35:50;;;;;;;5.03;2.58;;;14.30;25.80;;;;;;7389100;19;20022;-71
2023/05/10 06:38:20;;;;;;;4.20;2.22;;;14.20;24.30;;;;;;7367314;19;20006;-71
2023/05/10 06:40:50;;;;;;;3.55;2.70;;;14.20;24.10;;;;;;7367549;19;20090;-72
2023/05/10 06:43:20;;;;;;;3.35;2.30;;;14.30;22.00;;;;;;7368504;19;20094;-71
2023/05/10 06:45:51;;;;;;;3.53;2.35;;;14.30;23.00;;;;;;7367924;19;20014;-71
2023/05/10 06:48:21;;;;;;;3.28;2.83;;;14.50;20.30;;;;;;7367076;19;20018;-72
2023/05/10 06:50:53;;;;;;;2.53;2.00;;;14.60;20.80;;;;;;7388458;19;20021;-71
2023/05/10 06:53:23;;;;;;;7.30;2.75;;;14.70;19.00;;;;;;7367639;19;20014;-71
2023/05/10 06:55:53;;;;;;;2.30;1.83;;;14.50;18.10;;;;;;7365500;19;20017;-71
2023/05/10 06:58:23;;;;;;;2.15;1.90;;;14.60;20.40;;;;;;7366565;19;20018;-71
2023/05/10 07:00:53;;;;;;;2.50;1.90;;;14.90;19.30;;;;;;7366689;19;20010;-72
2023/05/10 07:03:23;;;;;;;2.13;1.77;;;15.20;17.90;;;;;;7367063;19;20110;-71
2023/05/10 07:05:56;;;;;;;2.08;1.70;;;15.40;14.40;;;;;;7387715;19;20106;-70
2023/05/10 07:08:25;;;;;;;2.75;1.58;;;15.30;13.00;;;;;;7367281;19;20003;-72
2023/05/10 07:10:55;;;;;;;3.85;1.65;;;15.00;10.50;;;;;;7366320;19;20466;-72
2023/05/10 07:13:25;;;;;;;2.05;1.75;;;14.90;14.00;;;;;;7367483;19;20011;-73
2023/05/10 07:15:55;;;;;;;3.40;1.63;;;15.20;13.80;;;;;;7363769;19;20014;-71
2023/05/10 07:18:25;;;;;;;1.95;1.52;;;15.30;11.40;;;;;;7364392;19;20008;-71
2023/05/10 07:20:59;;;;;;;3.60;1.85;;;15.40;12.60;;;;;;7386551;19;20466;-72
2023/05/10 07:23:29;;;;;;;2.20;1.50;;;15.30;10.70;;;;;;7367650;19;20010;-72
2023/05/10 07:25:59;;;;;;;2.40;2.00;;;15.30;11.40;;;;;;7365689;19;20015;-71
2023/05/10 07:28:29;;;;;;;3.53;1.50;;;15.50;10.30;;;;;;7366211;19;20018;-71
2023/05/10 07:30:59;;;;;;;4.88;1.38;;;15.70;9.70;;;;;;7366276;19;20040;-72
2023/05/10 07:33:29;;;;;;;7.43;5.00;;;15.80;9.20;;;;;;7366354;19;20013;-73
2023/05/10 07:36:02;;;;;;;3.63;1.23;;;15.70;5.40;;;;;;7387985;19;20043;-72
2023/05/10 07:38:32;;;;;;;2.83;1.40;;;15.70;3.90;;;;;;7365267;19;20013;-72
2023/05/10 07:41:02;;;;;;;1.58;1.30;;;15.60;4.10;;;;;;7367255;19;20087;-72
2023/05/10 07:43:32;;;;;;;3.70;1.38;;;15.40;5.30;;;;;;7366772;19;20070;-72
2023/05/10 07:46:02;;;;;;;1.88;1.40;;;15.70;5.00;;;;;;7365931;19;20102;-72
2023/05/10 07:48:32;;;;;;;4.70;1.40;;;15.40;2.70;;;;;;7366908;19;20691;-72
2023/05/10 07:51:06;;;;;;;2.72;1.45;;;15.20;6.70;;;;;;7386761;19;20035;-73
2023/05/10 07:53:36;;;;;;;1.85;1.00;;;15.50;6.30;;;;;;7366435;19;20014;-73
2023/05/10 07:56:24;;;;;;;2.65;1.00;;;15.20;3.10;;;;;;7364414;19;20025;-71
2023/05/10 07:58:54;;;;;;;1.63;0.88;;;15.30;3.90;;;;;;7364803;19;20567;-72
2023/05/10 08:01:25;;;;;;;2.28;0.77;;;15.10;1.00;;;;;;7364823;19;20017;-71
2023/05/10 08:03:55;;;;;;;1.70;0.80;;;15.10;1.00;;;;;;7363504;19;20014;-71
2023/05/10 08:06:29;;;;;;;2.03;0.93;;;15.30;1.00;;;;;;7364774;19;20011;-71
2023/05/10 08:09:00;;;;;;;8.95;1.50;;;15.50;1.00;;;;;;7386206;19;20010;-72
2023/05/10 08:11:30;;;;;;;2.55;0.95;;;15.20;1.00;;;;;;7364305;19;20006;-72
2023/05/10 08:14:03;;;;;;;1.42;0.70;;;15.30;1.00;;;;;;7364940;19;20078;-71
2023/05/10 08:16:34;;;;;;;1.90;0.70;;;15.20;1.00;;;;;;7363759;19;20027;-71
2023/05/10 08:19:04;;;;;;;0.65;0.50;;;15.20;1.00;;;;;;7363740;19;20017;-71
2023/05/10 08:21:37;;;;;;;1.23;0.60;;;15.20;1.00;;;;;;7364481;19;20133;-72
2023/05/10 08:24:07;;;;;;;0.60;0.50;;;15.30;1.00;;;;;;7365263;19;20547;-72
2023/05/10 08:26:37;;;;;;;2.30;0.70;;;15.40;1.00;;;;;;7384745;19;20014;-72
2023/05/10 08:29:07;;;;;;;1.40;0.65;;;15.30;1.00;;;;;;7370393;19;20014;-72
2023/05/10 08:31:37;;;;;;;6.22;1.40;;;15.20;1.00;;;;;;7373964;19;20014;-71
2023/05/10 08:34:07;;;;;;;1.48;0.60;;;15.30;1.00;;;;;;7372611;19;20010;-71
2023/05/10 08:36:40;;;;;;;1.70;0.70;;;15.20;1.00;;;;;;7370740;19;20028;-72
2023/05/10 08:39:10;;;;;;;0.60;0.40;;;15.10;1.00;;;;;;7369723;19;20022;-71
2023/05/10 08:42:00;;;;;;;0.90;0.63;;;15.10;1.00;;;;;;7393554;19;20017;-71
2023/05/10 08:44:30;;;;;;;1.38;0.75;;;15.30;1.00;;;;;;7371743;19;20010;-72
2023/05/10 08:47:01;;;;;;;1.25;0.60;;;15.50;1.00;;;;;;7371834;19;20011;-71
2023/05/10 08:49:34;;;;;;;2.72;0.57;;;15.50;1.00;;;;;;7371277;19;20015;-71
2023/05/10 08:52:09;;;;;;;1.23;0.70;;;15.50;1.00;;;;;;7371849;19;20021;-71
2023/05/10 08:54:40;;;;;;;1.10;0.43;;;15.60;1.00;;;;;;7371191;19;20035;-72
2023/05/10 08:57:10;;;;;;;1.73;0.40;;;15.60;1.00;;;;;;7370304;19;20011;-72
2023/05/10 08:59:40;;;;;;;1.25;0.40;;;16.10;1.00;;;;;;7393318;19;20362;-71
2023/05/10 09:02:14;;;;;;;1.30;0.50;;;15.80;1.00;;;;;;7372133;19;20014;-72
2023/05/10 09:04:48;;;;;;;1.35;0.47;;;15.80;1.00;;;;;;7371037;19;20114;-71
2023/05/10 09:07:22;;;;;;;1.35;0.50;;;16.00;1.00;;;;;;7370428;19;20023;-71
2023/05/10 09:09:52;;;;;;;1.75;0.32;;;16.00;1.00;;;;;;7366506;19;20027;-71
2023/05/10 09:12:22;;;;;;;1.65;0.38;;;15.80;1.00;;;;;;7370288;19;20021;-71
2023/05/10 09:14:53;;;;;;;1.50;0.88;;;15.90;1.00;;;;;;7392205;19;20039;-71
2023/05/10 09:17:25;;;;;;;0.60;0.50;;;16.00;1.00;;;;;;7372534;19;20026;-71
2023/05/10 09:20:00;;;;;;;1.48;0.60;;;16.10;1.00;;;;;;7367839;19;20015;-71
2023/05/10 09:22:33;;;;;;;0.60;0.30;;;15.40;1.00;;;;;;7370155;19;20042;-72
2023/05/10 09:25:07;;;;;;;1.30;0.40;;;15.80;1.00;;;;;;7371053;19;20497;-72
2023/05/10 09:27:37;;;;;;;;;;;15.30;1.00;;;;;;7372138;19;20021;-71
2023/05/10 09:30:09;;;;;;;1.75;0.57;;;15.70;1.00;;;;;;7370617;19;19982;-72
2023/05/10 09:32:41;;;;;;;0.90;0.50;;;15.80;1.00;;;;;;7395048;19;20029;-71
2023/05/10 09:35:12;;;;;;;1.15;0.73;;;16.10;1.00;;;;;;7367570;19;20019;-71
2023/05/10 09:37:47;;;;;;;7.82;0.75;;;15.90;1.00;;;;;;7370163;19;20015;-72
2023/05/10 09:40:19;;;;;;;3.95;0.65;;;16.10;1.00;;;;;;7368494;19;20010;-71
2023/05/10 09:42:55;;;;;;;0.80;0.55;;;16.40;1.00;;;;;;7370251;19;20010;-71
2023/05/10 09:45:26;;;;;;;1.20;0.70;;;16.50;1.00;;;;;;7369028;19;20003;-72
2023/05/10 09:47:56;;;;;;;1.23;0.63;;;16.20;1.00;;;;;;7391860;19;20014;-72
2023/05/10 09:50:27;;;;;;;0.93;0.80;;;16.80;1.00;;;;;;7368056;19;20014;-72
2023/05/10 09:53:02;;;;;;;0.90;0.50;;;16.60;1.00;;;;;;7368819;19;20015;-72
2023/05/10 09:55:44;;;;;;;1.25;0.65;;;16.10;1.00;;;;;;7368633;19;20389;-72
2023/05/10 09:58:14;;;;;;;0.60;0.45;;;16.10;1.00;;;;;;7369412;19;20014;-72
2023/05/10 10:00:47;;;;;;;1.42;0.50;;;16.40;1.00;;;;;;7367926;19;20020;-72
2023/05/10 10:03:19;;;;;;;2.90;0.50;;;16.50;1.00;;;;;;7368716;19;20291;-69
2023/05/10 10:05:51;;;;;;;1.50;0.60;;;16.90;1.00;;;;;;7389784;19;20029;-71
2023/05/10 10:08:26;;;;;;;0.80;0.55;;;15.90;1.00;;;;;;7368287;19;20006;-72
2023/05/10 10:10:56;;;;;;;0.98;0.65;;;16.10;1.00;;;;;;7367325;19;20019;-72
2023/05/10 10:13:26;;;;;;;2.28;0.68;;;15.70;1.00;;;;;;7367116;19;20025;-71
2023/05/10 10:15:57;;;;;;;2.50;0.60;;;15.80;1.00;;;;;;7366161;19;20550;-72
2023/05/10 10:18:28;;;;;;;2.40;0.75;;;15.70;1.00;;;;;;7366486;19;20510;-72
2023/05/10 10:20:59;;;;;;;1.35;0.70;;;16.10;1.00;;;;;;7387047;19;20023;-73
2023/05/10 10:23:34;;;;;;;1.33;0.60;;;16.10;1.00;;;;;;7367173;19;20043;-72
2023/05/10 10:26:05;;;;;;;2.08;0.80;;;16.40;1.00;;;;;;7366448;19;20221;-73
2023/05/10 10:28:43;;;;;;;0.70;0.50;;;16.50;1.00;;;;;;7367047;19;20038;-73
2023/05/10 10:31:25;;;;;;;2.97;0.70;;;16.70;1.00;;;;;;7367449;19;20017;-72
2023/05/10 10:34:06;;;;;;;1.45;0.80;;;17.00;1.00;;;;;;7366659;19;20026;-72
2023/05/10 10:36:42;;;;;;;2.83;0.77;;;17.20;1.00;;;;;;7366166;19;20010;-71
2023/05/10 10:39:15;;;;;;;2.42;0.52;;;16.40;1.00;;;;;;7366637;19;20018;-71
2023/05/10 10:41:53;;;;;;;0.80;0.55;;;16.50;1.00;;;;;;7389279;19;20081;-71
2023/05/10 10:44:38;;;;;;;0.80;0.50;;;17.00;1.00;;;;;;7366470;19;20011;-72
2023/05/10 10:47:11;;;;;;;1.95;0.50;;;17.70;1.00;;;;;;7365950;19;20374;-71
2023/05/10 10:49:46;;;;;;;0.90;0.50;;;17.20;1.00;;;;;;7366032;19;20018;-72
2023/05/10 10:52:28;;;;;;;3.20;0.60;;;17.30;1.00;;;;;;7366995;19;20007;-72
2023/05/10 10:55:06;;;;;;;0.50;0.40;;;17.00;1.00;;;;;;7364067;19;20095;-72
2023/05/10 10:57:45;;;;;;;1.20;0.70;;;17.10;1.00;;;;;;7365414;19;20380;-72
2023/05/10 11:00:32;;;;;;;0.93;0.50;;;16.60;1.00;;;;;;7365743;19;20462;-71
2023/05/10 11:03:06;;;;;;;2.88;0.40;;;16.50;1.00;;;;;;7388581;19;20475;-73
2023/05/10 11:05:41;;;;;;;2.97;0.80;;;16.20;1.00;;;;;;7364980;19;20474;-72
2023/05/10 11:08:18;;;;;;;0.93;0.63;;;16.10;1.00;;;;;;7366535;19;20050;-72
2023/05/10 11:11:09;;;;;;;0.95;0.70;;;16.30;1.00;;;;;;7365695;19;20038;-72
2023/05/10 11:13:42;;;;;;;2.65;0.80;;;16.00;1.00;;;;;;7358224;19;20030;-72
2023/05/10 11:16:18;;;;;;;2.73;0.73;;;15.50;1.00;;;;;;7361895;19;20009;-72
2023/05/10 11:19:01;;;;;;;4.45;0.70;;;15.30;1.00;;;;;;7365312;19;20027;-73
2023/05/10 11:21:36;;;;;;;2.10;0.52;;;15.90;1.00;;;;;;7363969;19;20018;-72
2023/05/10 11:24:15;;;;;;;1.70;0.73;;;16.00;1.00;;;;;;7366259;19;20018;-72
2023/05/10 11:26:48;;;;;;;4.32;0.90;;;16.50;1.00;;;;;;7385705;19;20006;-71
2023/05/10 11:29:19;;;;;;;1.25;0.60;;;16.70;1.00;;;;;;7364508;19;20478;-72
2023/05/10 11:31:50;;;;;;;0.88;0.70;;;17.00;1.00;;;;;;7365230;19;20010;-71
2023/05/10 11:34:27;;;;;;;1.15;0.47;;;17.20;1.00;;;;;;7366709;19;20061;-71
2023/05/10 11:36:58;;;;;;;1.00;0.70;;;16.90;1.00;;;;;;7364911;19;20014;-71
2023/05/10 11:39:33;;;;;;;1.15;0.60;;;16.90;1.00;;;;;;7364646;19;20389;-73
2023/05/10 11:42:08;;;;;;;0.70;0.57;;;17.00;1.00;;;;;;7386577;19;20479;-71
2023/05/10 11:44:40;;;;;;;1.00;0.80;;;16.50;1.00;;;;;;7363864;19;20549;-71
2023/05/10 11:47:10;;;;;;;2.95;0.80;;;17.50;1.00;;;;;;7364226;19;20034;-72
2023/05/10 11:49:40;;;;;;;1.40;0.80;;;17.10;1.00;;;;;;7364449;19;20014;-72
2023/05/10 11:52:11;;;;;;;2.78;0.90;;;16.90;1.00;;;;;;7366406;19;20034;-71
2023/05/10 11:54:47;;;;;;;2.33;1.05;;;16.90;1.00;;;;;;7365130;19;20017;-71
2023/05/10 11:57:21;;;;;;;2.35;0.90;;;17.00;1.00;;;;;;7367154;19;20015;-71
2023/05/10 11:59:55;;;;;;;2.05;1.25;;;16.90;1.00;;;;;;7386376;19;20044;-72
2023/05/10 12:02:25;;;;;;;3.40;1.23;;;17.50;1.00;;;;;;7365847;19;20018;-72
2023/05/10 12:04:57;;;;;;;2.10;0.90;;;16.70;1.00;;;;;;7369351;19;20607;-71
2023/05/10 12:07:29;;;;;;;1.42;0.93;;;17.20;1.00;;;;;;7372795;19;20019;-71
2023/05/10 12:10:07;;;;;;;1.58;1.00;;;17.00;1.00;;;;;;7370991;19;20007;-72
2023/05/10 12:12:47;;;;;;;3.08;0.88;;;16.40;1.00;;;;;;7369168;19;20010;-72
2023/05/10 12:15:21;;;;;;;2.90;1.17;;;16.60;1.00;;;;;;7370382;19;20022;-72
2023/05/10 12:17:51;;;;;;;6.32;1.90;;;16.80;1.00;;;;;;7394259;19;20018;-71
2023/05/10 12:20:23;;;;;;;2.85;1.00;;;16.70;1.00;;;;;;7370585;19;20011;-71
2023/05/10 12:22:55;;;;;;;4.30;1.60;;;17.50;1.00;;;;;;7373404;19;20030;-71
2023/05/10 12:25:33;;;;;;;1.75;1.20;;;16.80;1.00;;;;;;7370043;19;20014;-72
2023/05/10 12:28:06;;;;;;;2.65;1.15;;;16.80;1.00;;;;;;7372394;19;20031;-71
2023/05/10 12:30:38;;;;;;;4.17;1.40;;;16.70;1.00;;;;;;7368837;19;20018;-70
2023/05/10 12:33:11;;;;;;;2.08;1.00;;;16.50;1.00;;;;;;7372786;19;20498;-72
2023/05/10 12:35:49;;;;;;;3.00;1.00;;;16.20;1.00;;;;;;7391143;19;20054;-73
2023/05/10 12:38:32;;;;;;;2.13;0.90;;;16.00;1.00;;;;;;7370931;19;20396;-73
2023/05/10 12:41:03;;;;;;;1.60;0.80;;;16.70;1.00;;;;;;7369299;19;20790;-72
2023/05/10 12:43:36;;;;;;;3.40;0.80;;;16.40;1.00;;;;;;7372025;19;20018;-72
2023/05/10 12:46:10;;;;;;;1.95;0.93;;;16.40;1.00;;;;;;7371066;19;20019;-73
2023/05/10 12:48:41;;;;;;;2.28;0.73;;;16.20;1.00;;;;;;7365780;19;20015;-73
2023/05/10 12:51:15;;;;;;;0.82;0.60;;;16.20;1.00;;;;;;7367659;19;20019;-73
2023/05/10 12:53:47;;;;;;;2.33;0.70;;;16.40;1.00;;;;;;7385977;19;20040;-71
2023/05/10 12:56:18;;;;;;;2.43;0.97;;;16.60;1.00;;;;;;7370778;19;21153;-72
2023/05/10 12:58:50;;;;;;;1.58;0.70;;;17.00;1.00;;;;;;7362511;19;20024;-72
2023/05/10 13:01:20;;;;;;;2.65;0.60;;;16.90;1.00;;;;;;7368377;19;20109;-73
2023/05/10 13:03:50;;;;;;;1.67;0.70;;;16.10;1.00;;;;;;7365523;19;20021;-72
2023/05/10 13:06:20;;;;;;;2.53;0.70;;;16.50;1.00;;;;;;7367875;19;20094;-71
2023/05/10 13:08:51;;;;;;;1.20;0.70;;;17.40;1.00;;;;;;7380503;19;20481;-72
2023/05/10 13:11:21;;;;;;;2.85;0.70;;;16.90;1.00;;;;;;7372463;19;20027;-71
2023/05/10 13:13:54;;;;;;;2.38;0.70;;;16.80;1.00;;;;;;7359864;19;20461;-71
2023/05/10 13:16:24;;;;;;;1.80;0.70;;;17.10;1.00;;;;;;7365979;19;20022;-72
2023/05/10 13:18:54;;;;;;;3.08;0.85;;;17.30;1.00;;;;;;7366059;19;20071;-72